sensor_id;sensor_type;location;lat;lon;timestamp;temperature;humidity
3334;DHT22;1679;50.392;8.008;2024-03-02T00:02:12;5.10;99.90
3334;DHT22;1679;50.392;8.008;2024-03-02T00:04:38;5.00;99.90
3334;DHT22;1679;50.392;8.008;2024-03-02T00:07:06;5.00;99.90
3334;DHT22;1679;50.392;8.008;2024-03-02T00:09:31;5.00;99.90
3334;DHT22;1679;50.392;8.008;2024-03-02T00:11:57;4.90;99.90
3334;DHT22;1679;50.392;8.008;2024-03-02T00:14:23;4.90;99.90
3334;DHT22;1679;50.392;8.008;2024-03-02T00:16:51;4.90;99.90
3334;DHT22;1679;50.392;8.008;2024-03-02T00:19:19;5.00;99.90
3334;DHT22;1679;50.392;8.008;2024-03-02T00:21:44;4.90;99.90
3334;DHT22;1679;50.392;8.008;2024-03-02T00:24:21;5.00;99.90
3334;DHT22;1679;50.392;8.008;2024-03-02T00:26:52;5.10;99.90
3334;DHT22;1679;50.392;8.008;2024-03-02T00:29:18;5.10;99.90
3334;DHT22;1679;50.392;8.008;2024-03-02T00:31:45;5.10;99.90
3334;DHT22;1679;50.392;8.008;2024-03-02T00:34:14;5.10;99.90
3334;DHT22;1679;50.392;8.008;2024-03-02T00:36:43;5.10;99.90
3334;DHT22;1679;50.392;8.008;2024-03-02T00:39:12;5.00;99.90
3334;DHT22;1679;50.392;8.008;2024-03-02T00:41:42;5.10;99.90
3334;DHT22;1679;50.392;8.008;2024-03-02T00:44:09;5.10;99.90
3334;DHT22;1679;50.392;8.008;2024-03-02T00:46:38;5.20;99.90
3334;DHT22;1679;50.392;8.008;2024-03-02T00:49:25;5.20;99.90
3334;DHT22;1679;50.392;8.008;2024-03-02T00:51:56;5.20;99.90
3334;DHT22;1679;50.392;8.008;2024-03-02T00:54:25;5.20;99.90
3334;DHT22;1679;50.392;8.008;2024-03-02T00:56:52;5.20;99.90
3334;DHT22;1679;50.392;8.008;2024-03-02T00:59:20;5.30;99.90
3334;DHT22;1679;50.392;8.008;2024-03-02T01:01:48;5.30;99.90
3334;DHT22;1679;50.392;8.008;2024-03-02T01:04:14;5.40;99.90
3334;DHT22;1679;50.392;8.008;2024-03-02T01:06:44;5.40;99.90
3334;DHT22;1679;50.392;8.008;2024-03-02T01:09:09;5.50;99.90
3334;DHT22;1679;50.392;8.008;2024-03-02T01:11:35;5.50;99.90
3334;DHT22;1679;50.392;8.008;2024-03-02T01:14:01;5.40;99.90
3334;DHT22;1679;50.392;8.008;2024-03-02T01:16:27;5.40;99.90
3334;DHT22;1679;50.392;8.008;2024-03-02T01:18:53;5.50;99.90
3334;DHT22;1679;50.392;8.008;2024-03-02T01:21:18;5.50;99.90
3334;DHT22;1679;50.392;8.008;2024-03-02T01:23:44;5.50;99.90
3334;DHT22;1679;50.392;8.008;2024-03-02T01:26:11;5.60;99.90
3334;DHT22;1679;50.392;8.008;2024-03-02T01:28:38;5.50;99.90
3334;DHT22;1679;50.392;8.008;2024-03-02T01:31:03;5.50;99.90
3334;DHT22;1679;50.392;8.008;2024-03-02T01:33:28;5.50;99.90
3334;DHT22;1679;50.392;8.008;2024-03-02T01:35:55;5.50;99.90
3334;DHT22;1679;50.392;8.008;2024-03-02T01:38:20;5.40;99.90
3334;DHT22;1679;50.392;8.008;2024-03-02T01:40:47;5.50;99.90
3334;DHT22;1679;50.392;8.008;2024-03-02T01:43:12;5.40;99.90
3334;DHT22;1679;50.392;8.008;2024-03-02T01:45:38;5.40;99.90
3334;DHT22;1679;50.392;8.008;2024-03-02T01:48:05;5.40;99.90
3334;DHT22;1679;50.392;8.008;2024-03-02T01:50:32;5.30;99.90
3334;DHT22;1679;50.392;8.008;2024-03-02T01:53:00;5.30;99.90
3334;DHT22;1679;50.392;8.008;2024-03-02T01:55:26;5.20;99.90
3334;DHT22;1679;50.392;8.008;2024-03-02T01:57:54;5.30;99.90
3334;DHT22;1679;50.392;8.008;2024-03-02T02:00:20;5.20;99.90
3334;DHT22;1679;50.392;8.008;2024-03-02T02:02:47;5.10;99.90
3334;DHT22;1679;50.392;8.008;2024-03-02T02:05:13;5.10;99.90
3334;DHT22;1679;50.392;8.008;2024-03-02T02:07:40;5.10;99.90
3334;DHT22;1679;50.392;8.008;2024-03-02T02:10:05;5.10;99.90
3334;DHT22;1679;50.392;8.008;2024-03-02T02:12:32;5.10;99.90
3334;DHT22;1679;50.392;8.008;2024-03-02T02:14:58;5.10;99.90
3334;DHT22;1679;50.392;8.008;2024-03-02T02:17:24;5.10;99.90
3334;DHT22;1679;50.392;8.008;2024-03-02T02:19:49;5.20;99.90
3334;DHT22;1679;50.392;8.008;2024-03-02T02:22:16;5.10;99.90
3334;DHT22;1679;50.392;8.008;2024-03-02T02:24:42;5.10;99.90
3334;DHT22;1679;50.392;8.008;2024-03-02T02:27:09;5.10;99.90
3334;DHT22;1679;50.392;8.008;2024-03-02T02:29:35;5.10;99.90
3334;DHT22;1679;50.392;8.008;2024-03-02T02:32:01;5.00;99.90
3334;DHT22;1679;50.392;8.008;2024-03-02T02:34:28;5.00;99.90
3334;DHT22;1679;50.392;8.008;2024-03-02T02:36:54;4.90;99.90
3334;DHT22;1679;50.392;8.008;2024-03-02T02:39:21;4.90;99.90
3334;DHT22;1679;50.392;8.008;2024-03-02T02:41:48;4.90;99.90
3334;DHT22;1679;50.392;8.008;2024-03-02T02:44:13;4.90;99.90
3334;DHT22;1679;50.392;8.008;2024-03-02T02:46:40;4.80;99.90
3334;DHT22;1679;50.392;8.008;2024-03-02T02:49:05;4.80;99.90
3334;DHT22;1679;50.392;8.008;2024-03-02T02:51:31;4.80;99.90
3334;DHT22;1679;50.392;8.008;2024-03-02T02:53:57;4.80;99.90
3334;DHT22;1679;50.392;8.008;2024-03-02T02:56:22;4.80;99.90
3334;DHT22;1679;50.392;8.008;2024-03-02T02:58:48;4.70;99.90
3334;DHT22;1679;50.392;8.008;2024-03-02T03:01:16;4.70;99.90
3334;DHT22;1679;50.392;8.008;2024-03-02T03:03:45;4.70;99.90
3334;DHT22;1679;50.392;8.008;2024-03-02T03:06:11;4.80;99.90
3334;DHT22;1679;50.392;8.008;2024-03-02T03:08:36;4.80;99.90
3334;DHT22;1679;50.392;8.008;2024-03-02T03:11:02;4.80;99.90
3334;DHT22;1679;50.392;8.008;2024-03-02T03:13:28;4.80;99.90
3334;DHT22;1679;50.392;8.008;2024-03-02T03:15:53;4.80;99.90
3334;DHT22;1679;50.392;8.008;2024-03-02T03:18:19;4.80;99.90
3334;DHT22;1679;50.392;8.008;2024-03-02T03:20:44;4.70;99.90
3334;DHT22;1679;50.392;8.008;2024-03-02T03:23:10;4.60;99.90
3334;DHT22;1679;50.392;8.008;2024-03-02T03:25:40;4.60;99.90
3334;DHT22;1679;50.392;8.008;2024-03-02T03:28:06;4.70;99.90
3334;DHT22;1679;50.392;8.008;2024-03-02T03:30:32;4.70;99.90
3334;DHT22;1679;50.392;8.008;2024-03-02T03:32:57;4.80;99.90
3334;DHT22;1679;50.392;8.008;2024-03-02T03:35:23;5.00;99.90
3334;DHT22;1679;50.392;8.008;2024-03-02T03:37:49;5.00;99.90
3334;DHT22;1679;50.392;8.008;2024-03-02T03:40:15;5.00;99.90
3334;DHT22;1679;50.392;8.008;2024-03-02T03:42:40;5.10;99.90
3334;DHT22;1679;50.392;8.008;2024-03-02T03:45:07;5.10;99.90
3334;DHT22;1679;50.392;8.008;2024-03-02T03:47:32;5.00;99.90
3334;DHT22;1679;50.392;8.008;2024-03-02T03:49:58;5.10;99.90
3334;DHT22;1679;50.392;8.008;2024-03-02T03:52:25;5.10;99.90
3334;DHT22;1679;50.392;8.008;2024-03-02T03:54:50;5.10;99.90
3334;DHT22;1679;50.392;8.008;2024-03-02T03:57:16;5.00;99.90
3334;DHT22;1679;50.392;8.008;2024-03-02T03:59:42;4.90;99.90
3334;DHT22;1679;50.392;8.008;2024-03-02T04:02:08;4.90;99.90
3334;DHT22;1679;50.392;8.008;2024-03-02T04:04:35;4.90;99.90
3334;DHT22;1679;50.392;8.008;2024-03-02T04:07:01;4.80;99.90
3334;DHT22;1679;50.392;8.008;2024-03-02T04:09:27;4.80;99.90
3334;DHT22;1679;50.392;8.008;2024-03-02T04:11:53;4.80;99.90
3334;DHT22;1679;50.392;8.008;2024-03-02T04:14:18;4.80;99.90
3334;DHT22;1679;50.392;8.008;2024-03-02T04:16:44;4.70;99.90
3334;DHT22;1679;50.392;8.008;2024-03-02T04:19:11;4.80;99.90
3334;DHT22;1679;50.392;8.008;2024-03-02T04:21:38;4.80;99.90
3334;DHT22;1679;50.392;8.008;2024-03-02T04:24:04;4.70;99.90
3334;DHT22;1679;50.392;8.008;2024-03-02T04:26:29;4.70;99.90
3334;DHT22;1679;50.392;8.008;2024-03-02T04:28:55;4.70;99.90
3334;DHT22;1679;50.392;8.008;2024-03-02T04:31:22;4.60;99.90
3334;DHT22;1679;50.392;8.008;2024-03-02T04:33:50;4.70;99.90
3334;DHT22;1679;50.392;8.008;2024-03-02T04:36:17;4.70;99.90
3334;DHT22;1679;50.392;8.008;2024-03-02T04:38:43;4.70;99.90
3334;DHT22;1679;50.392;8.008;2024-03-02T04:41:09;4.70;99.90
3334;DHT22;1679;50.392;8.008;2024-03-02T04:43:35;4.80;99.90
3334;DHT22;1679;50.392;8.008;2024-03-02T04:46:01;4.80;99.90
3334;DHT22;1679;50.392;8.008;2024-03-02T04:48:27;4.80;99.90
3334;DHT22;1679;50.392;8.008;2024-03-02T04:50:52;4.80;99.90
3334;DHT22;1679;50.392;8.008;2024-03-02T04:53:18;4.80;99.90
3334;DHT22;1679;50.392;8.008;2024-03-02T04:55:43;4.80;99.90
3334;DHT22;1679;50.392;8.008;2024-03-02T04:58:09;4.70;99.90
3334;DHT22;1679;50.392;8.008;2024-03-02T05:00:35;4.70;99.90
3334;DHT22;1679;50.392;8.008;2024-03-02T05:03:01;4.70;99.90
3334;DHT22;1679;50.392;8.008;2024-03-02T05:05:26;4.70;99.90
3334;DHT22;1679;50.392;8.008;2024-03-02T05:07:52;4.70;99.90
3334;DHT22;1679;50.392;8.008;2024-03-02T05:10:19;4.70;99.90
3334;DHT22;1679;50.392;8.008;2024-03-02T05:12:45;4.70;99.90
3334;DHT22;1679;50.392;8.008;2024-03-02T05:15:14;4.70;99.90
3334;DHT22;1679;50.392;8.008;2024-03-02T05:17:40;4.70;99.90
3334;DHT22;1679;50.392;8.008;2024-03-02T05:20:08;4.70;99.90
3334;DHT22;1679;50.392;8.008;2024-03-02T05:22:36;4.70;99.90
3334;DHT22;1679;50.392;8.008;2024-03-02T05:25:02;4.80;99.90
3334;DHT22;1679;50.392;8.008;2024-03-02T05:27:28;4.90;99.90
3334;DHT22;1679;50.392;8.008;2024-03-02T05:29:55;4.90;99.90
3334;DHT22;1679;50.392;8.008;2024-03-02T05:32:21;5.00;99.90
3334;DHT22;1679;50.392;8.008;2024-03-02T05:34:47;5.00;99.90
3334;DHT22;1679;50.392;8.008;2024-03-02T05:37:12;5.00;99.90
3334;DHT22;1679;50.392;8.008;2024-03-02T05:39:38;5.10;99.90
3334;DHT22;1679;50.392;8.008;2024-03-02T05:42:04;5.10;99.90
3334;DHT22;1679;50.392;8.008;2024-03-02T05:44:29;5.10;99.90
3334;DHT22;1679;50.392;8.008;2024-03-02T05:46:55;5.10;99.90
3334;DHT22;1679;50.392;8.008;2024-03-02T05:49:22;5.20;99.90
3334;DHT22;1679;50.392;8.008;2024-03-02T05:51:49;5.20;99.90
3334;DHT22;1679;50.392;8.008;2024-03-02T05:54:15;5.20;99.90
3334;DHT22;1679;50.392;8.008;2024-03-02T05:56:41;5.20;99.90
3334;DHT22;1679;50.392;8.008;2024-03-02T05:59:07;5.30;99.90
3334;DHT22;1679;50.392;8.008;2024-03-02T06:01:40;5.30;99.90
3334;DHT22;1679;50.392;8.008;2024-03-02T06:04:06;5.30;99.90
3334;DHT22;1679;50.392;8.008;2024-03-02T06:06:32;5.30;99.90
3334;DHT22;1679;50.392;8.008;2024-03-02T06:08:59;5.30;99.90
3334;DHT22;1679;50.392;8.008;2024-03-02T06:11:25;5.30;99.90
3334;DHT22;1679;50.392;8.008;2024-03-02T06:13:52;5.40;99.90
3334;DHT22;1679;50.392;8.008;2024-03-02T06:16:17;5.40;99.90
3334;DHT22;1679;50.392;8.008;2024-03-02T06:18:43;5.50;99.90
3334;DHT22;1679;50.392;8.008;2024-03-02T06:21:08;5.50;99.90
3334;DHT22;1679;50.392;8.008;2024-03-02T06:23:35;5.40;99.90
3334;DHT22;1679;50.392;8.008;2024-03-02T06:26:01;5.40;99.90
3334;DHT22;1679;50.392;8.008;2024-03-02T06:28:28;5.40;99.90
3334;DHT22;1679;50.392;8.008;2024-03-02T06:30:54;5.40;99.90
3334;DHT22;1679;50.392;8.008;2024-03-02T06:33:20;5.40;99.90
3334;DHT22;1679;50.392;8.008;2024-03-02T06:35:45;5.40;99.90
3334;DHT22;1679;50.392;8.008;2024-03-02T06:38:11;5.40;99.90
3334;DHT22;1679;50.392;8.008;2024-03-02T06:40:36;5.40;99.90
3334;DHT22;1679;50.392;8.008;2024-03-02T06:43:06;5.40;99.90
3334;DHT22;1679;50.392;8.008;2024-03-02T06:45:33;5.40;99.90
3334;DHT22;1679;50.392;8.008;2024-03-02T06:47:59;5.40;99.90
3334;DHT22;1679;50.392;8.008;2024-03-02T06:50:26;5.40;99.90
3334;DHT22;1679;50.392;8.008;2024-03-02T06:52:52;5.40;99.90
3334;DHT22;1679;50.392;8.008;2024-03-02T06:55:19;5.50;99.90
3334;DHT22;1679;50.392;8.008;2024-03-02T06:57:46;5.60;99.90
3334;DHT22;1679;50.392;8.008;2024-03-02T07:00:11;5.60;99.90
3334;DHT22;1679;50.392;8.008;2024-03-02T07:02:37;5.70;99.90
3334;DHT22;1679;50.392;8.008;2024-03-02T07:05:03;5.70;99.90
3334;DHT22;1679;50.392;8.008;2024-03-02T07:07:29;5.70;99.90
3334;DHT22;1679;50.392;8.008;2024-03-02T07:09:54;5.80;99.90
3334;DHT22;1679;50.392;8.008;2024-03-02T07:12:20;5.90;99.90
3334;DHT22;1679;50.392;8.008;2024-03-02T07:14:45;5.90;99.90
3334;DHT22;1679;50.392;8.008;2024-03-02T07:17:31;6.00;99.90
3334;DHT22;1679;50.392;8.008;2024-03-02T07:19:57;6.10;99.90
3334;DHT22;1679;50.392;8.008;2024-03-02T07:22:23;6.20;99.90
3334;DHT22;1679;50.392;8.008;2024-03-02T07:24:49;6.30;99.90
3334;DHT22;1679;50.392;8.008;2024-03-02T07:27:16;6.30;99.90
3334;DHT22;1679;50.392;8.008;2024-03-02T07:29:42;6.40;99.90
3334;DHT22;1679;50.392;8.008;2024-03-02T07:32:08;6.40;99.90
3334;DHT22;1679;50.392;8.008;2024-03-02T07:34:34;6.50;99.90
3334;DHT22;1679;50.392;8.008;2024-03-02T07:36:59;6.50;99.90
3334;DHT22;1679;50.392;8.008;2024-03-02T07:39:25;6.60;99.90
3334;DHT22;1679;50.392;8.008;2024-03-02T07:41:51;6.60;99.90
3334;DHT22;1679;50.392;8.008;2024-03-02T07:44:17;6.70;99.90
3334;DHT22;1679;50.392;8.008;2024-03-02T07:46:45;6.80;99.90
3334;DHT22;1679;50.392;8.008;2024-03-02T07:49:18;6.90;99.90
3334;DHT22;1679;50.392;8.008;2024-03-02T07:51:44;6.90;99.90
3334;DHT22;1679;50.392;8.008;2024-03-02T07:54:10;7.00;99.90
3334;DHT22;1679;50.392;8.008;2024-03-02T07:56:35;7.00;99.90
3334;DHT22;1679;50.392;8.008;2024-03-02T07:59:02;7.10;99.90
3334;DHT22;1679;50.392;8.008;2024-03-02T08:01:31;7.10;99.90
3334;DHT22;1679;50.392;8.008;2024-03-02T08:03:58;7.00;99.90
3334;DHT22;1679;50.392;8.008;2024-03-02T08:06:25;6.90;99.90
3334;DHT22;1679;50.392;8.008;2024-03-02T08:08:56;6.90;99.90
3334;DHT22;1679;50.392;8.008;2024-03-02T08:11:23;6.90;99.90
3334;DHT22;1679;50.392;8.008;2024-03-02T08:13:48;6.90;99.90
3334;DHT22;1679;50.392;8.008;2024-03-02T08:16:18;6.80;99.90
3334;DHT22;1679;50.392;8.008;2024-03-02T08:18:51;6.80;99.90
3334;DHT22;1679;50.392;8.008;2024-03-02T08:21:17;6.90;99.90
3334;DHT22;1679;50.392;8.008;2024-03-02T08:23:44;6.90;99.90
3334;DHT22;1679;50.392;8.008;2024-03-02T08:26:10;7.00;99.90
3334;DHT22;1679;50.392;8.008;2024-03-02T08:28:36;6.90;99.90
3334;DHT22;1679;50.392;8.008;2024-03-02T08:31:06;6.90;99.90
3334;DHT22;1679;50.392;8.008;2024-03-02T08:33:33;6.90;99.90
3334;DHT22;1679;50.392;8.008;2024-03-02T08:36:00;7.00;99.90
3334;DHT22;1679;50.392;8.008;2024-03-02T08:38:26;7.10;99.90
3334;DHT22;1679;50.392;8.008;2024-03-02T08:40:51;7.30;99.90
3334;DHT22;1679;50.392;8.008;2024-03-02T08:43:17;7.80;99.90
3334;DHT22;1679;50.392;8.008;2024-03-02T08:45:43;8.50;99.90
3334;DHT22;1679;50.392;8.008;2024-03-02T08:48:08;9.20;99.90
3334;DHT22;1679;50.392;8.008;2024-03-02T08:50:36;9.80;99.90
3334;DHT22;1679;50.392;8.008;2024-03-02T08:53:05;10.10;99.90
3334;DHT22;1679;50.392;8.008;2024-03-02T08:55:31;10.10;99.90
3334;DHT22;1679;50.392;8.008;2024-03-02T08:57:56;10.00;99.90
3334;DHT22;1679;50.392;8.008;2024-03-02T09:00:23;9.80;99.90
3334;DHT22;1679;50.392;8.008;2024-03-02T09:02:50;9.60;99.90
3334;DHT22;1679;50.392;8.008;2024-03-02T09:05:16;9.50;99.90
3334;DHT22;1679;50.392;8.008;2024-03-02T09:07:42;9.40;99.90
3334;DHT22;1679;50.392;8.008;2024-03-02T09:10:08;9.50;99.90
3334;DHT22;1679;50.392;8.008;2024-03-02T09:12:34;9.90;99.90
3334;DHT22;1679;50.392;8.008;2024-03-02T09:15:00;10.20;99.90
3334;DHT22;1679;50.392;8.008;2024-03-02T09:17:26;10.30;99.90
3334;DHT22;1679;50.392;8.008;2024-03-02T09:19:53;10.50;99.90
3334;DHT22;1679;50.392;8.008;2024-03-02T09:22:20;11.00;99.90
3334;DHT22;1679;50.392;8.008;2024-03-02T09:24:46;11.20;99.90
3334;DHT22;1679;50.392;8.008;2024-03-02T09:27:11;11.40;99.90
3334;DHT22;1679;50.392;8.008;2024-03-02T09:29:37;11.70;99.90
3334;DHT22;1679;50.392;8.008;2024-03-02T09:32:07;11.70;99.90
3334;DHT22;1679;50.392;8.008;2024-03-02T09:34:34;11.70;99.90
3334;DHT22;1679;50.392;8.008;2024-03-02T09:37:00;11.70;99.90
3334;DHT22;1679;50.392;8.008;2024-03-02T09:39:25;11.80;99.90
3334;DHT22;1679;50.392;8.008;2024-03-02T09:41:54;11.80;99.90
3334;DHT22;1679;50.392;8.008;2024-03-02T09:44:20;12.00;99.90
3334;DHT22;1679;50.392;8.008;2024-03-02T09:46:49;12.00;99.90
3334;DHT22;1679;50.392;8.008;2024-03-02T09:49:15;12.10;99.90
3334;DHT22;1679;50.392;8.008;2024-03-02T09:51:46;12.10;99.90
3334;DHT22;1679;50.392;8.008;2024-03-02T09:54:12;12.00;99.90
3334;DHT22;1679;50.392;8.008;2024-03-02T09:56:39;12.10;99.90
3334;DHT22;1679;50.392;8.008;2024-03-02T09:59:04;12.20;99.90
3334;DHT22;1679;50.392;8.008;2024-03-02T10:01:30;12.10;99.90
3334;DHT22;1679;50.392;8.008;2024-03-02T10:03:59;12.20;99.90
3334;DHT22;1679;50.392;8.008;2024-03-02T10:06:26;12.40;99.90
3334;DHT22;1679;50.392;8.008;2024-03-02T10:08:54;12.60;99.90
3334;DHT22;1679;50.392;8.008;2024-03-02T10:14:11;12.50;99.90
3334;DHT22;1679;50.392;8.008;2024-03-02T10:16:42;12.30;99.90
3334;DHT22;1679;50.392;8.008;2024-03-02T10:21:42;12.10;99.90
3334;DHT22;1679;50.392;8.008;2024-03-02T10:24:08;12.20;99.90
3334;DHT22;1679;50.392;8.008;2024-03-02T10:26:35;12.20;99.90
3334;DHT22;1679;50.392;8.008;2024-03-02T10:29:00;12.30;99.90
3334;DHT22;1679;50.392;8.008;2024-03-02T10:31:26;12.40;99.90
3334;DHT22;1679;50.392;8.008;2024-03-02T10:33:57;12.40;99.90
3334;DHT22;1679;50.392;8.008;2024-03-02T10:36:23;12.50;99.90
3334;DHT22;1679;50.392;8.008;2024-03-02T10:38:51;12.50;99.90
3334;DHT22;1679;50.392;8.008;2024-03-02T10:41:23;12.40;99.90
3334;DHT22;1679;50.392;8.008;2024-03-02T10:43:51;12.40;99.90
3334;DHT22;1679;50.392;8.008;2024-03-02T10:46:19;12.30;99.90
3334;DHT22;1679;50.392;8.008;2024-03-02T10:48:47;12.20;99.90
3334;DHT22;1679;50.392;8.008;2024-03-02T10:51:13;12.10;99.90
3334;DHT22;1679;50.392;8.008;2024-03-02T10:53:38;12.00;99.90
3334;DHT22;1679;50.392;8.008;2024-03-02T10:56:07;11.80;99.90
3334;DHT22;1679;50.392;8.008;2024-03-02T10:58:33;11.80;99.90
3334;DHT22;1679;50.392;8.008;2024-03-02T11:01:02;11.80;99.90
3334;DHT22;1679;50.392;8.008;2024-03-02T11:03:30;11.70;99.90
3334;DHT22;1679;50.392;8.008;2024-03-02T11:05:59;11.70;99.90
3334;DHT22;1679;50.392;8.008;2024-03-02T11:08:27;11.80;99.90
3334;DHT22;1679;50.392;8.008;2024-03-02T11:10:58;11.90;99.90
3334;DHT22;1679;50.392;8.008;2024-03-02T11:13:33;12.10;99.90
3334;DHT22;1679;50.392;8.008;2024-03-02T11:16:05;12.10;99.90
3334;DHT22;1679;50.392;8.008;2024-03-02T11:18:32;12.10;99.90
3334;DHT22;1679;50.392;8.008;2024-03-02T11:20:59;12.10;99.90
3334;DHT22;1679;50.392;8.008;2024-03-02T11:23:34;12.20;99.90
3334;DHT22;1679;50.392;8.008;2024-03-02T11:26:19;12.10;99.90
3334;DHT22;1679;50.392;8.008;2024-03-02T11:28:46;12.20;99.90
3334;DHT22;1679;50.392;8.008;2024-03-02T11:31:12;12.30;99.90
3334;DHT22;1679;50.392;8.008;2024-03-02T11:33:37;12.30;99.90
3334;DHT22;1679;50.392;8.008;2024-03-02T11:36:03;12.30;99.90
3334;DHT22;1679;50.392;8.008;2024-03-02T11:38:31;12.30;99.90
3334;DHT22;1679;50.392;8.008;2024-03-02T11:41:00;12.40;99.90
3334;DHT22;1679;50.392;8.008;2024-03-02T11:43:28;12.50;99.90
3334;DHT22;1679;50.392;8.008;2024-03-02T11:45:58;12.60;99.90
3334;DHT22;1679;50.392;8.008;2024-03-02T11:48:24;12.60;99.90
3334;DHT22;1679;50.392;8.008;2024-03-02T11:50:50;12.60;99.90
3334;DHT22;1679;50.392;8.008;2024-03-02T11:53:19;12.60;99.90
3334;DHT22;1679;50.392;8.008;2024-03-02T11:55:45;12.80;99.90
3334;DHT22;1679;50.392;8.008;2024-03-02T11:58:12;12.80;99.90
3334;DHT22;1679;50.392;8.008;2024-03-02T12:00:38;12.80;99.90
3334;DHT22;1679;50.392;8.008;2024-03-02T12:03:05;12.70;99.90
3334;DHT22;1679;50.392;8.008;2024-03-02T12:05:31;12.70;99.90
3334;DHT22;1679;50.392;8.008;2024-03-02T12:08:04;12.70;99.90
3334;DHT22;1679;50.392;8.008;2024-03-02T12:10:31;12.70;99.90
3334;DHT22;1679;50.392;8.008;2024-03-02T12:12:58;12.70;99.90
3334;DHT22;1679;50.392;8.008;2024-03-02T12:15:29;12.70;99.90
3334;DHT22;1679;50.392;8.008;2024-03-02T12:17:56;12.70;99.90
3334;DHT22;1679;50.392;8.008;2024-03-02T12:20:24;12.80;99.90
3334;DHT22;1679;50.392;8.008;2024-03-02T12:22:53;12.70;99.90
3334;DHT22;1679;50.392;8.008;2024-03-02T12:25:20;12.60;99.90
3334;DHT22;1679;50.392;8.008;2024-03-02T12:27:47;12.60;99.90
3334;DHT22;1679;50.392;8.008;2024-03-02T12:30:13;12.60;99.90
3334;DHT22;1679;50.392;8.008;2024-03-02T12:32:42;12.50;99.90
3334;DHT22;1679;50.392;8.008;2024-03-02T12:35:10;12.60;99.90
3334;DHT22;1679;50.392;8.008;2024-03-02T12:37:53;12.60;99.90
3334;DHT22;1679;50.392;8.008;2024-03-02T12:40:19;12.60;99.90
3334;DHT22;1679;50.392;8.008;2024-03-02T12:42:46;12.60;99.90
3334;DHT22;1679;50.392;8.008;2024-03-02T12:45:13;12.60;99.90
3334;DHT22;1679;50.392;8.008;2024-03-02T12:47:40;12.60;99.90
3334;DHT22;1679;50.392;8.008;2024-03-02T12:50:06;12.60;99.90
3334;DHT22;1679;50.392;8.008;2024-03-02T12:52:32;12.50;99.90
3334;DHT22;1679;50.392;8.008;2024-03-02T12:54:59;12.50;99.90
3334;DHT22;1679;50.392;8.008;2024-03-02T12:57:26;12.60;99.90
3334;DHT22;1679;50.392;8.008;2024-03-02T13:00:04;12.60;99.90
3334;DHT22;1679;50.392;8.008;2024-03-02T13:02:34;12.60;99.90
3334;DHT22;1679;50.392;8.008;2024-03-02T13:05:00;12.60;99.90
3334;DHT22;1679;50.392;8.008;2024-03-02T13:07:26;12.60;99.90
3334;DHT22;1679;50.392;8.008;2024-03-02T13:09:52;12.60;99.90
3334;DHT22;1679;50.392;8.008;2024-03-02T13:12:20;12.50;99.90
3334;DHT22;1679;50.392;8.008;2024-03-02T13:14:52;12.50;99.90
3334;DHT22;1679;50.392;8.008;2024-03-02T13:17:18;12.40;99.90
3334;DHT22;1679;50.392;8.008;2024-03-02T13:19:57;12.40;99.90
3334;DHT22;1679;50.392;8.008;2024-03-02T13:22:25;12.40;99.90
3334;DHT22;1679;50.392;8.008;2024-03-02T13:24:53;12.50;99.90
3334;DHT22;1679;50.392;8.008;2024-03-02T13:27:22;12.50;99.90
3334;DHT22;1679;50.392;8.008;2024-03-02T13:29:48;12.60;99.90
3334;DHT22;1679;50.392;8.008;2024-03-02T13:32:14;12.60;99.90
3334;DHT22;1679;50.392;8.008;2024-03-02T13:34:40;12.60;99.90
3334;DHT22;1679;50.392;8.008;2024-03-02T13:37:07;12.60;99.90
3334;DHT22;1679;50.392;8.008;2024-03-02T13:39:33;12.60;99.90
3334;DHT22;1679;50.392;8.008;2024-03-02T13:42:00;12.50;99.90
3334;DHT22;1679;50.392;8.008;2024-03-02T13:44:33;12.50;99.90
3334;DHT22;1679;50.392;8.008;2024-03-02T13:47:00;12.60;99.90
3334;DHT22;1679;50.392;8.008;2024-03-02T13:49:25;12.60;99.90
3334;DHT22;1679;50.392;8.008;2024-03-02T13:52:07;12.60;99.90
3334;DHT22;1679;50.392;8.008;2024-03-02T13:54:39;12.60;99.90
3334;DHT22;1679;50.392;8.008;2024-03-02T13:57:06;12.60;99.90
3334;DHT22;1679;50.392;8.008;2024-03-02T13:59:31;12.60;99.90
3334;DHT22;1679;50.392;8.008;2024-03-02T14:01:58;12.50;99.90
3334;DHT22;1679;50.392;8.008;2024-03-02T14:04:24;12.60;99.90
3334;DHT22;1679;50.392;8.008;2024-03-02T14:06:49;12.60;99.90
3334;DHT22;1679;50.392;8.008;2024-03-02T14:09:15;12.60;99.90
3334;DHT22;1679;50.392;8.008;2024-03-02T14:11:42;12.60;99.90
3334;DHT22;1679;50.392;8.008;2024-03-02T14:14:07;12.50;99.90
3334;DHT22;1679;50.392;8.008;2024-03-02T14:16:33;12.50;99.90
3334;DHT22;1679;50.392;8.008;2024-03-02T14:18:59;12.50;99.90
3334;DHT22;1679;50.392;8.008;2024-03-02T14:21:26;12.50;99.90
3334;DHT22;1679;50.392;8.008;2024-03-02T14:23:52;12.50;99.90
3334;DHT22;1679;50.392;8.008;2024-03-02T14:26:17;12.40;99.90
3334;DHT22;1679;50.392;8.008;2024-03-02T14:28:46;12.40;99.90
3334;DHT22;1679;50.392;8.008;2024-03-02T14:31:12;12.40;99.90
3334;DHT22;1679;50.392;8.008;2024-03-02T14:33:37;12.40;99.90
3334;DHT22;1679;50.392;8.008;2024-03-02T14:36:03;12.40;99.90
3334;DHT22;1679;50.392;8.008;2024-03-02T14:38:31;12.50;99.90
3334;DHT22;1679;50.392;8.008;2024-03-02T14:40:57;12.50;99.90
3334;DHT22;1679;50.392;8.008;2024-03-02T14:43:22;12.50;99.90
3334;DHT22;1679;50.392;8.008;2024-03-02T14:45:48;12.50;99.90
3334;DHT22;1679;50.392;8.008;2024-03-02T14:48:14;12.50;99.90
3334;DHT22;1679;50.392;8.008;2024-03-02T14:50:43;12.50;99.90
3334;DHT22;1679;50.392;8.008;2024-03-02T14:53:09;12.50;99.90
3334;DHT22;1679;50.392;8.008;2024-03-02T14:55:34;12.50;99.90
3334;DHT22;1679;50.392;8.008;2024-03-02T14:58:00;12.50;99.90
3334;DHT22;1679;50.392;8.008;2024-03-02T15:00:26;12.50;99.90
3334;DHT22;1679;50.392;8.008;2024-03-02T15:02:52;12.50;99.90
3334;DHT22;1679;50.392;8.008;2024-03-02T15:05:17;12.50;99.90
3334;DHT22;1679;50.392;8.008;2024-03-02T15:07:44;12.50;99.90
3334;DHT22;1679;50.392;8.008;2024-03-02T15:10:10;12.50;99.90
3334;DHT22;1679;50.392;8.008;2024-03-02T15:12:36;12.40;99.90
3334;DHT22;1679;50.392;8.008;2024-03-02T15:15:02;12.50;99.90
3334;DHT22;1679;50.392;8.008;2024-03-02T15:17:27;12.50;99.90
3334;DHT22;1679;50.392;8.008;2024-03-02T15:19:53;12.50;99.90
3334;DHT22;1679;50.392;8.008;2024-03-02T15:22:18;12.50;99.90
3334;DHT22;1679;50.392;8.008;2024-03-02T15:24:44;12.50;99.90
3334;DHT22;1679;50.392;8.008;2024-03-02T15:27:09;12.50;99.90
3334;DHT22;1679;50.392;8.008;2024-03-02T15:29:35;12.50;99.90
3334;DHT22;1679;50.392;8.008;2024-03-02T15:32:04;12.50;99.90
3334;DHT22;1679;50.392;8.008;2024-03-02T15:34:31;12.50;99.90
3334;DHT22;1679;50.392;8.008;2024-03-02T15:36:57;12.50;99.90
3334;DHT22;1679;50.392;8.008;2024-03-02T15:39:23;12.40;99.90
3334;DHT22;1679;50.392;8.008;2024-03-02T15:41:48;12.40;99.90
3334;DHT22;1679;50.392;8.008;2024-03-02T15:44:14;12.40;99.90
3334;DHT22;1679;50.392;8.008;2024-03-02T15:46:39;12.40;99.90
3334;DHT22;1679;50.392;8.008;2024-03-02T15:49:05;12.40;99.90
3334;DHT22;1679;50.392;8.008;2024-03-02T15:51:31;12.30;99.90
3334;DHT22;1679;50.392;8.008;2024-03-02T15:53:59;12.30;99.90
3334;DHT22;1679;50.392;8.008;2024-03-02T15:56:24;12.30;99.90
3334;DHT22;1679;50.392;8.008;2024-03-02T15:58:50;12.20;99.90
3334;DHT22;1679;50.392;8.008;2024-03-02T16:01:15;12.20;99.90
3334;DHT22;1679;50.392;8.008;2024-03-02T16:03:41;12.20;99.90
3334;DHT22;1679;50.392;8.008;2024-03-02T16:06:07;12.20;99.90
3334;DHT22;1679;50.392;8.008;2024-03-02T16:08:32;12.20;99.90
3334;DHT22;1679;50.392;8.008;2024-03-02T16:10:59;12.10;99.90
3334;DHT22;1679;50.392;8.008;2024-03-02T16:13:26;12.10;99.90